Latest Weather Observations for Perth Airport

IDW60901

Issued at 1:41 am WST Monday 25 September 2017 (issued every 10 minutes, with the page automatically refreshed every 10 minutes)

About weather observations | Map of Perth area stations | Latest observations for Perth area | Other Formats
Station Details ID: 009021 Name: PERTH AIRPORT Lat: -31.93 Lon: 115.98 Height: 15.4 m
Data from the previous 72 hours. | See also: Recent months at Perth Airport
Date/Time
WST
Temp
°C
App
Temp
°C
Dew
Point
°C
Rel
Hum
%
Delta-T
°C
Wind Press
QNH
hPa
Press
MSL
hPa
Rain since
9am
mm
Dir  Spd
km/h
Gust
km/h
Spd
kts
Gust
kts
25/01:30am 9.7 6.2 8.7 93 0.5 NNE 17 20 9 11 1003.6 1003.6 7.8
25/01:00am 9.9 6.4 8.7 92 0.6 NNE 17 24 9 13 1003.6 1003.6 7.8
25/12:30am 9.9 6.4 8.9 93 0.5 NNE 17 19 9 10 1003.9 1003.9 7.8
25/12:00am 9.7 6.6 8.7 93 0.5 NNE 15 17 8 9 1004.1 1004.1 7.6
 
Date/Time
WST
Temp
°C
App
Temp
°C
Dew
Point
°C
Rel
Hum
%
Delta-T
°C
Wind Press
QNH
hPa
Press
MSL
hPa
Rain since
9am
mm
Dir  Spd
km/h
Gust
km/h
Spd
kts
Gust
kts
24/11:30pm 9.9 6.8 8.9 93 0.5 NNE 15 19 8 10 1004.1 1004.1 7.6
24/11:00pm 10.3 7.3 9.3 93 0.5 NNE 15 17 8 9 1004.5 1004.5 7.6
24/10:30pm 10.0 6.6 9.0 93 0.5 NE 17 32 9 17 1004.7 1004.7 7.6
24/10:00pm 9.5 6.7 8.5 93 0.5 ENE 13 15 7 8 1005.1 1005.1 7.6
24/09:30pm 9.5 6.7 8.5 93 0.5 ENE 13 20 7 11 1005.4 1005.4 7.6
24/09:00pm 9.9 7.9 8.7 92 0.6 W 9 11 5 6 1005.5 1005.5 7.6
24/08:39pm 10.8 7.9 9.6 92 0.6 S 15 39 8 21 1005.5 1005.5 6.6
24/08:30pm 10.3 8.1 9.5 95 0.4 E 11 15 6 8 1005.0 1005.0 6.6
24/08:00pm 10.4 8.2 9.4 93 0.5 ENE 11 11 6 6 1005.2 1005.2 6.6
24/07:30pm 10.5 8.7 9.3 92 0.6 WNW 9 13 5 7 1005.3 1005.3 6.6
24/07:00pm 11.9 8.5 9.1 83 1.4 NNW 17 20 9 11 1005.3 1005.3 6.6
24/06:30pm 13.4 10.9 8.2 71 2.6 WNW 11 17 6 9 1004.9 1004.9 6.0
24/06:00pm 13.6 10.6 7.5 66 3.0 WNW 13 17 7 9 1005.0 1005.0 5.8
24/05:30pm 14.6 11.4 6.8 59 3.8 W 13 20 7 11 1004.7 1004.7 5.8
24/05:00pm 14.9 11.2 6.5 57 4.1 W 15 24 8 13 1004.7 1004.7 5.8
24/04:30pm 15.0 12.3 10.5 74 2.4 W 15 26 8 14 1004.8 1004.8 5.8
24/04:00pm 14.3 11.2 10.3 77 2.1 W 17 26 9 14 1004.8 1004.8 5.8
24/03:30pm 14.2 10.5 10.2 77 2.1 N 20 28 11 15 1004.3 1004.3 5.4
24/03:00pm 14.0 11.3 11.8 86 1.2 NNE 17 20 9 11 1004.2 1004.2 5.4
24/02:30pm 13.0 9.8 11.3 89 0.9 N 19 28 10 15 1004.9 1004.9 5.2
24/02:22pm 13.7 10.8 10.9 83 1.5 NNW 17 22 9 12 1005.1 1005.1 2.4
24/02:00pm 14.6 12.7 11.8 83 1.5 NNW 13 17 7 9 1005.0 1005.0 2.2
24/01:30pm 13.9 11.3 12.1 89 1.0 N 17 20 9 11 1005.5 1005.5 1.8
24/01:00pm 14.0 12.7 11.4 84 1.4 N 9 13 5 7 1005.9 1005.9 1.0
24/12:30pm 13.9 10.9 10.5 80 1.8 NNE 17 20 9 11 1006.0 1006.0 0.4
24/12:00pm 15.2 11.2 9.2 67 3.1 NNE 20 28 11 15 1006.3 1006.3 0.2
24/11:30am 15.9 10.9 8.0 59 4.0 N 24 33 13 18 1006.5 1006.5 0.2
24/11:00am 17.0 12.9 7.7 54 4.7 NNE 19 26 10 14 1006.7 1006.7 0.0
24/10:30am 16.3 13.6 8.9 61 3.8 NNE 13 19 7 10 1007.4 1007.4 0.0
24/10:00am 16.3 13.8 9.6 64 3.5 NNE 13 19 7 10 1007.6 1007.6 0.0
24/09:30am 15.5 13.4 9.7 68 3.0 N 11 15 6 8 1008.0 1008.0 0.0
24/09:00am 14.8 12.1 10.4 75 2.3 NE 15 19 8 10 1008.3 1008.3 5.0
24/08:30am 13.7 11.2 10.9 83 1.5 NNE 15 19 8 10 1008.4 1008.4 5.0
24/08:00am 12.8 10.6 10.7 87 1.1 NNE 13 17 7 9 1008.4 1008.4 5.0
24/07:30am 12.0 9.8 10.9 93 0.6 NE 13 19 7 10 1008.4 1008.4 5.0
24/07:00am 10.8 8.8 10.0 95 0.4 NE 11 17 6 9 1008.2 1008.2 5.0
24/06:30am 10.7 8.6 9.7 93 0.5 NE 11 15 6 8 1008.2 1008.2 5.0
24/06:21am 10.8 9.0 9.6 92 0.6 NE 9 19 5 10 1008.2 1008.2 5.0
24/06:02am 10.8 7.2 9.8 93 0.5 SSE 19 30 10 16 1008.4 1008.4 4.8
24/06:01am 10.8 7.2 9.8 93 0.5 SSE 19 30 10 16 1008.3 1008.3 4.4
24/06:00am 10.8 7.2 10.0 95 0.4 SSE 19 30 10 16 1008.3 1008.3 4.2
24/05:48am 10.8 8.3 9.8 93 0.5 E 13 19 7 10 1008.0 1008.0 3.4
24/05:30am 10.7 8.3 9.9 95 0.4 ENE 13 17 7 9 1008.2 1008.2 3.4
24/05:27am 10.6 8.6 10.0 96 0.3 ENE 11 15 6 8 1008.3 1008.3 3.4
24/05:23am 10.7 9.0 9.9 95 0.4 E 9 13 5 7 1008.3 1008.3 3.4
24/05:08am 10.8 9.1 10.0 95 0.4 NE 9 13 5 7 1008.5 1008.5 3.2
24/05:00am 10.8 9.1 9.8 93 0.5 NE 9 13 5 7 1008.5 1008.5 3.0
24/04:30am 10.5 8.4 9.9 96 0.3 NE 11 13 6 7 1008.5 1008.5 3.0
24/04:00am 10.5 8.8 9.9 96 0.3 NNE 9 13 5 7 1008.7 1008.7 3.0
24/03:30am 10.3 8.1 9.5 95 0.4 NE 11 15 6 8 1008.5 1008.5 2.8
24/03:00am 10.3 7.7 9.5 95 0.4 E 13 28 7 15 1008.9 1008.9 2.8
24/02:30am 10.8 8.8 10.0 95 0.4 NE 11 13 6 7 1009.6 1009.6 2.8
24/02:00am 10.6 8.1 9.6 93 0.5 NNE 13 15 7 8 1009.9 1009.9 2.4
24/01:30am 10.8 9.5 10.0 95 0.4 NE 7 9 4 5 1010.3 1010.3 2.4
24/01:00am 11.2 8.9 10.4 95 0.4 ESE 13 17 7 9 1010.4 1010.4 2.4
24/12:30am 11.5 10.5 10.3 92 0.6 NNE 6 9 3 5 1010.8 1010.8 2.2
24/12:00am 11.8 10.1 10.0 89 0.9 NW 9 11 5 6 1011.3 1011.3 1.0
 
Date/Time
WST
Temp
°C
App
Temp
°C
Dew
Point
°C
Rel
Hum
%
Delta-T
°C
Wind Press
QNH
hPa
Press
MSL
hPa
Rain since
9am
mm
Dir  Spd
km/h
Gust
km/h
Spd
kts
Gust
kts
23/11:30pm 11.9 10.4 9.1 83 1.4 NE 7 9 4 5 1011.0 1011.0 0.4
23/11:00pm 11.9 10.0 9.1 83 1.4 NE 9 15 5 8 1011.3 1011.3 0.4
23/10:30pm 12.3 9.2 8.7 79 1.8 NE 15 28 8 15 1011.7 1011.7 0.4
23/10:00pm 12.9 10.5 7.1 68 2.8 NE 9 13 5 7 1012.1 1012.1 0.4
23/09:30pm 12.9 10.2 7.4 69 2.7 ENE 11 11 6 6 1012.5 1012.5 0.4
23/09:00pm 12.8 10.6 7.7 71 2.5 E 9 11 5 6 1012.7 1012.7 0.4
23/08:30pm 13.0 12.5 7.9 71 2.5 CALM 0 4 0 2 1012.9 1012.9 0.4
23/08:00pm 13.9 11.4 6.4 60 3.6 SW 9 9 5 5 1012.8 1012.8 0.4
23/07:30pm 14.2 11.5 5.5 56 4.1 SW 9 13 5 7 1012.9 1012.9 0.4
23/07:00pm 14.2 10.9 4.7 53 4.4 SW 11 15 6 8 1012.9 1012.9 0.4
23/06:30pm 14.6 10.0 3.6 47 5.0 SW 17 24 9 13 1012.9 1012.9 0.4
23/06:00pm 14.8 10.7 4.2 49 4.9 SW 15 20 8 11 1013.0 1013.0 0.4
23/05:30pm 15.0 10.5 4.2 48 5.0 SW 17 22 9 12 1013.0 1013.0 0.4
23/05:00pm 15.1 10.7 4.6 49 4.9 WSW 17 28 9 15 1013.1 1013.1 0.4
23/04:30pm 15.4 10.5 5.3 51 4.8 WSW 20 30 11 16 1013.0 1013.0 0.4
23/04:00pm 15.6 10.7 5.0 49 5.0 W 20 26 11 14 1012.7 1012.7 0.4
23/03:30pm 16.1 11.2 5.2 48 5.2 WSW 20 26 11 14 1012.5 1012.5 0.4
23/03:00pm 16.1 10.5 5.2 48 5.2 WSW 24 32 13 17 1012.5 1012.5 0.4
23/02:30pm 16.8 11.4 6.2 49 5.2 SW 24 32 13 17 1012.5 1012.5 0.4
23/02:00pm 15.6 9.5 6.6 55 4.4 SW 28 35 15 19 1012.7 1012.7 0.4
23/01:30pm 16.0 11.7 6.9 54 4.5 WSW 19 32 10 17 1012.7 1012.7 0.4
23/01:00pm 14.6 8.3 8.9 68 2.9 SW 32 39 17 21 1013.4 1013.4 0.2
23/12:30pm 16.2 11.0 5.6 49 5.1 WSW 22 32 12 17 1013.1 1013.1 0.2
23/12:00pm 16.1 11.0 6.2 52 4.8 WSW 22 37 12 20 1013.2 1013.2 0.2
23/11:30am 15.2 10.4 7.5 60 3.8 WSW 22 37 12 20 1013.7 1013.7 0.2
23/11:00am 16.2 10.4 8.1 58 4.1 SW 28 41 15 22 1013.5 1013.5 0.2
23/10:30am 15.6 10.3 8.5 62 3.6 SW 26 37 14 20 1013.4 1013.4 0.2
23/10:00am 14.3 11.0 9.6 73 2.4 WSW 17 24 9 13 1013.7 1013.7 0.2
23/09:30am 14.9 9.9 9.5 70 2.8 WSW 26 33 14 18 1013.4 1013.4 0.0
23/09:00am 13.4 9.4 8.4 72 2.5 SW 19 30 10 16 1013.4 1013.4 10.0
23/08:30am 12.7 9.0 9.6 81 1.6 SW 19 26 10 14 1013.3 1013.3 10.0
23/08:00am 12.4 8.4 9.2 81 1.6 SW 20 28 11 15 1012.9 1012.9 9.8
23/07:30am 12.7 9.8 9.8 82 1.5 WSW 15 24 8 13 1012.5 1012.5 9.2
23/07:00am 12.4 8.8 9.9 85 1.3 SW 19 26 10 14 1012.1 1012.1 8.0
23/06:30am 11.9 8.6 9.7 86 1.1 SW 17 26 9 14 1011.7 1011.7 7.8
23/06:00am 11.5 9.6 9.1 85 1.2 WSW 9 13 5 7 1011.6 1011.6 7.0
23/05:30am 12.3 8.9 9.1 81 1.6 W 17 28 9 15 1011.6 1011.6 6.6
23/05:06am 13.1 7.6 7.6 69 2.7 WSW 26 52 14 28 1011.5 1011.5 6.4
23/05:05am 13.3 8.1 7.1 66 3.0 WSW 24 52 13 28 1011.5 1011.5 6.4
23/05:00am 13.5 8.9 5.7 59 3.7 W 19 28 10 15 1011.2 1011.2 6.4
23/04:30am 13.4 8.2 5.5 59 3.7 WSW 22 30 12 16 1010.9 1010.9 6.4
23/04:00am 13.1 9.1 5.1 58 3.7 WSW 15 24 8 13 1010.9 1010.9 6.4
23/03:30am 12.8 7.9 5.3 60 3.5 SW 20 28 11 15 1010.7 1010.7 6.4
23/03:00am 13.3 7.6 5.1 57 3.8 SW 24 30 13 16 1010.7 1010.7 6.4
23/02:30am 13.5 7.8 5.1 57 3.9 SW 24 32 13 17 1010.9 1010.9 6.4
23/02:00am 13.6 8.1 3.9 52 4.4 WSW 22 33 12 18 1011.0 1011.0 6.4
23/01:30am 13.7 8.0 6.7 62 3.4 WSW 26 35 14 19 1011.0 1011.0 6.4
23/01:00am 13.6 8.1 7.5 66 3.0 WSW 26 35 14 19 1011.0 1011.0 6.4
23/12:30am 14.3 9.4 6.7 60 3.7 WSW 22 37 12 20 1011.2 1011.2 6.4
23/12:11am 14.2 8.1 6.5 60 3.7 WSW 28 50 15 27 1011.3 1011.3 6.4
23/12:00am 13.9 9.5 7.4 65 3.2 WSW 20 35 11 19 1011.1 1011.1 6.4
 
Date/Time
WST
Temp
°C
App
Temp
°C
Dew
Point
°C
Rel
Hum
%
Delta-T
°C
Wind Press
QNH
hPa
Press
MSL
hPa
Rain since
9am
mm
Dir  Spd
km/h
Gust
km/h
Spd
kts
Gust
kts
22/11:30pm 13.8 9.2 6.5 61 3.5 WSW 20 30 11 16 1011.1 1011.1 6.4
22/11:00pm 13.9 10.0 8.8 71 2.6 WSW 19 32 10 17 1011.0 1011.0 6.4
22/10:30pm 13.4 9.8 9.7 78 1.9 WSW 19 30 10 16 1011.0 1011.0 6.4
22/10:00pm 14.3 10.5 9.0 70 2.7 W 19 30 10 16 1011.0 1011.0 5.8
22/09:30pm 13.5 10.2 9.6 77 2.0 WSW 17 28 9 15 1010.8 1010.8 5.8
22/09:00pm 15.5 10.6 7.0 57 4.2 WSW 22 35 12 19 1010.5 1010.5 5.6
22/08:30pm 15.6 10.7 6.9 56 4.3 WSW 22 37 12 20 1010.3 1010.3 5.6
22/08:00pm 15.3 11.1 8.2 62 3.6 WSW 20 33 11 18 1009.8 1009.8 5.6
22/07:54pm 15.2 10.2 8.0 62 3.6 WSW 24 37 13 20 1009.8 1009.8 5.6
22/07:36pm 15.2 9.8 9.6 69 2.9 WSW 28 46 15 25 1009.5 1009.5 5.6
22/07:30pm 15.8 10.9 8.5 62 3.7 W 24 41 13 22 1009.3 1009.3 5.6
22/07:00pm 15.8 9.9 7.6 58 4.1 W 28 48 15 26 1008.8 1008.8 5.6
22/06:30pm 16.0 10.1 7.4 56 4.3 W 28 48 15 26 1008.4 1008.4 5.6
22/06:00pm 16.1 9.1 7.0 54 4.5 W 33 52 18 28 1008.0 1008.0 5.6
22/05:34pm 16.3 9.5 7.5 56 4.4 W 33 54 18 29 1007.8 1007.8 5.6
22/05:30pm 16.3 9.5 7.8 57 4.3 WSW 33 48 18 26 1007.7 1007.7 5.6
22/05:01pm 16.6 10.3 7.2 54 4.7 W 30 48 16 26 1007.1 1007.1 5.6
22/05:00pm 16.6 9.8 6.9 52 4.8 W 32 48 17 26 1007.1 1007.1 5.6
22/04:30pm 16.9 10.0 7.3 53 4.8 W 33 54 18 29 1006.5 1006.5 5.6
22/04:00pm 17.6 8.9 7.5 51 5.1 W 43 63 23 34 1006.0 1006.0 5.6
22/03:30pm 17.0 8.1 7.0 51 5.0 W 43 65 23 35 1005.4 1005.4 5.6
22/03:00pm 17.3 9.3 9.0 58 4.3 W 41 61 22 33 1004.6 1004.6 5.6
22/02:49pm 16.6 7.6 8.9 60 4.0 W 46 65 25 35 1004.3 1004.3 5.6
22/02:30pm 15.6 8.7 12.7 83 1.6 WNW 41 65 22 35 1003.7 1003.7 5.4
22/02:27pm 17.3 10.3 11.4 68 3.2 WNW 39 65 21 35 1003.7 1003.7 4.2
22/02:23pm 17.4 11.1 12.4 72 2.8 WNW 37 56 20 30 1003.6 1003.6 4.2
22/02:00pm 13.8 5.3 10.8 82 1.6 W 46 83 25 45 1003.7 1003.7 4.2
22/01:51pm 15.4 6.3 11.3 76 2.2 WNW 50 69 27 37 1003.3 1003.3 3.2
22/01:49pm 16.3 6.9 10.1 66 3.3 WNW 50 72 27 39 1003.3 1003.3 2.6
22/01:30pm 18.0 8.1 8.3 53 5.0 WNW 50 76 27 41 1003.1 1003.1 2.4
22/01:20pm 18.5 10.2 9.9 57 4.6 WNW 44 74 24 40 1003.2 1003.2 2.4
22/01:00pm 16.4 10.4 10.0 66 3.4 WNW 32 50 17 27 1003.2 1003.2 2.4
22/12:30pm 16.6 6.5 7.2 54 4.7 W 50 89 27 48 1003.1 1003.1 2.4
22/12:29pm 17.5 7.3 6.9 49 5.3 WNW 50 89 27 48 1003.0 1003.0 2.4
22/12:00pm 18.5 10.1 7.5 48 5.6 W 41 67 22 36 1002.5 1002.5 2.4
22/11:30am 18.1 9.9 8.0 51 5.2 W 41 65 22 35 1002.4 1002.4 2.4
22/11:23am 17.8 9.2 8.3 53 4.9 W 43 72 23 39 1002.4 1002.4 2.4
22/11:00am 16.3 10.2 10.5 68 3.1 W 33 57 18 31 1002.4 1002.4 2.4
22/10:38am 16.1 11.1 11.1 72 2.7 WNW 28 46 15 25 1002.3 1002.3 2.4
22/10:30am 15.4 11.6 11.3 76 2.2 WNW 22 35 12 19 1002.5 1002.5 2.4
22/10:00am 14.1 10.0 11.3 83 1.5 W 24 41 13 22 1002.6 1002.6 2.2
22/09:47am 13.7 8.7 11.1 84 1.4 W 28 44 15 24 1002.7 1002.7 2.2
22/09:30am 13.4 9.2 12.3 93 0.6 W 26 41 14 22 1002.6 1002.6 1.2
22/09:13am 13.7 7.6 11.8 88 1.0 W 35 59 19 32 1002.2 1002.2 0.4
22/09:09am 14.3 9.6 12.1 87 1.2 WNW 28 57 15 31 1002.1 1002.1 0.2
22/09:08am 14.5 10.7 12.3 87 1.2 WNW 24 46 13 25 1001.9 1001.9 0.2
22/09:00am 14.5 10.3 12.5 88 1.1 WNW 26 35 14 19 1001.7 1001.7 7.8
22/08:46am 13.6 8.9 12.1 91 0.8 NW 28 43 15 23 1001.9 1001.9 7.8
22/08:30am 13.4 7.0 11.9 91 0.8 WNW 37 61 20 33 1002.2 1002.2 7.0
22/08:19am 14.3 6.8 12.1 87 1.2 WNW 43 57 23 31 1002.1 1002.1 5.8
22/08:10am 14.6 8.6 12.2 85 1.3 NW 35 57 19 31 1001.6 1001.6 5.2
22/08:00am 14.2 8.2 12.0 87 1.2 NNW 35 54 19 29 1001.6 1001.6 5.0
22/07:32am 13.2 10.6 11.9 92 0.7 N 17 22 9 12 1001.4 1001.4 4.0
22/07:30am 13.2 10.6 11.9 92 0.7 N 17 22 9 12 1001.5 1001.5 4.0
22/07:07am 13.1 9.5 11.8 92 0.7 NNE 22 30 12 16 1001.5 1001.5 3.2
22/07:00am 13.1 9.8 11.6 91 0.8 NNE 20 26 11 14 1001.3 1001.3 3.2
22/06:30am 13.6 10.2 11.2 85 1.3 N 20 26 11 14 1001.8 1001.8 2.8
22/06:00am 13.3 10.4 11.0 86 1.2 N 17 20 9 11 1002.0 1002.0 2.8
22/05:30am 14.3 11.5 11.5 83 1.5 N 17 19 9 10 1002.2 1002.2 2.8
22/05:00am 15.0 11.6 11.3 78 2.0 NNW 20 32 11 17 1002.4 1002.4 2.8
22/04:30am 15.8 11.8 10.5 71 2.8 NW 22 33 12 18 1003.1 1003.1 2.8
22/04:00am 14.9 12.4 11.0 77 2.1 NW 15 24 8 13 1003.2 1003.2 2.8
22/03:30am 15.1 11.9 11.4 78 2.0 W 19 33 10 18 1003.5 1003.5 2.8
22/03:14am 15.3 10.4 11.2 76 2.2 WNW 28 48 15 26 1003.6 1003.6 2.8
22/03:00am 15.6 12.3 9.4 66 3.2 NW 17 32 9 17 1003.7 1003.7 2.6
22/02:30am 15.3 11.9 9.1 66 3.2 NW 17 28 9 15 1004.0 1004.0 2.6
22/02:00am 15.1 11.7 9.3 68 3.0 NW 17 20 9 11 1004.5 1004.5 2.6

Latest Capital City Observations: Canberra | Sydney | Melbourne | Brisbane | Adelaide | Perth | Hobart | Darwin

Other Formats:

Comma delimited format used in spreadsheet applications
http://www.bom.gov.au/fwo/IDW60901/IDW60901.94610.axf

JavaScript Object Notation format (JSON) in row-major order
http://www.bom.gov.au/fwo/IDW60901/IDW60901.94610.json